Time;durP1;ratioP1;P1;durP2;ratioP2;P2;SDS_P1;SDS_P2;PMS_P1;PMS_P2;Temp;Humidity;BMP_temperature;BMP_pressure;BME280_temperature;BME280_humidity;BME280_pressure;Samples;Min_cycle;Max_cycle;Signal;HPM_P1;HPM_P2
2022/06/06 00:01:10;;;;;;;3.10;2.23;;;;;;;15.69;100.00;98235.28;5134355;28;20251;-68
2022/06/06 00:03:37;;;;;;;2.20;1.90;;;;;;;15.67;100.00;98231.25;5134370;28;20191;-69
2022/06/06 00:06:10;;;;;;;4.67;2.10;;;;;;;15.71;100.00;98233.19;5134249;28;20297;-68
2022/06/06 00:08:36;;;;;;;4.00;2.77;;;;;;;15.73;100.00;98224.88;5134231;28;20218;-68
2022/06/06 00:11:04;;;;;;;2.53;2.33;;;;;;;15.72;100.00;98229.44;5134129;28;20293;-69
2022/06/06 00:13:31;;;;;;;2.23;2.10;;;;;;;15.74;100.00;98227.31;5134232;28;20210;-68
2022/06/06 00:15:59;;;;;;;2.70;2.30;;;;;;;15.76;100.00;98227.06;5134231;28;20198;-69
2022/06/06 00:18:25;;;;;;;3.03;2.20;;;;;;;15.83;100.00;98225.03;5135099;27;20226;-69
2022/06/06 00:20:52;;;;;;;5.50;2.57;;;;;;;15.67;100.00;98218.66;5138163;27;20381;-69
2022/06/06 00:23:19;;;;;;;2.97;2.47;;;;;;;15.76;100.00;98224.41;5138130;27;20285;-68
2022/06/06 00:25:45;;;;;;;2.77;2.40;;;;;;;15.69;100.00;98223.78;5138356;27;20302;-69
2022/06/06 00:28:12;;;;;;;4.40;2.63;;;;;;;15.58;100.00;98222.00;5137944;27;20226;-69
2022/06/06 00:30:38;;;;;;;3.00;2.70;;;;;;;15.53;100.00;98225.44;5137646;27;20564;-69
2022/06/06 00:35:49;;;;;;;3.50;2.27;;;;;;;15.63;100.00;98225.56;5138168;27;20623;-69
2022/06/06 00:38:15;;;;;;;3.03;2.83;;;;;;;15.60;100.00;98226.06;5137668;27;20314;-68
2022/06/06 00:40:42;;;;;;;3.83;2.43;;;;;;;15.66;100.00;98225.09;5137743;27;20294;-68
2022/06/06 00:43:09;;;;;;;2.87;2.33;;;;;;;15.66;100.00;98218.91;5137427;27;20290;-69
2022/06/06 00:45:39;;;;;;;4.13;2.60;;;;;;;15.65;100.00;98219.97;5137577;27;20213;-69
2022/06/06 00:48:20;;;;;;;3.17;2.43;;;;;;;15.67;100.00;98212.47;5137570;27;20265;-69
2022/06/06 00:50:51;;;;;;;2.87;2.60;;;;;;;15.52;100.00;98218.44;5137248;27;20207;-69
2022/06/06 00:53:24;;;;;;;5.67;2.87;;;;;;;15.44;100.00;98208.16;5119142;27;20226;-69
2022/06/06 00:55:57;;;;;;;4.40;2.77;;;;;;;15.39;100.00;98204.56;5137511;27;20277;-68
2022/06/06 00:58:26;;;;;;;5.50;2.70;;;;;;;15.39;100.00;98204.56;5137269;27;20226;-68
2022/06/06 01:00:53;;;;;;;5.83;3.07;;;;;;;15.38;100.00;98200.28;5137411;27;20202;-68
2022/06/06 01:03:24;;;;;;;3.30;2.63;;;;;;;15.40;100.00;98203.50;5136980;27;20665;-69
2022/06/06 01:05:53;;;;;;;2.67;2.47;;;;;;;15.37;100.00;98199.47;5137142;27;20191;-69
2022/06/06 01:08:21;;;;;;;2.90;2.60;;;;;;;15.31;100.00;98195.06;5136565;27;20705;-69
2022/06/06 01:10:48;;;;;;;4.87;3.00;;;;;;;15.34;100.00;98191.09;5137168;27;20297;-68
2022/06/06 01:13:18;;;;;;;3.20;3.00;;;;;;;15.34;100.00;98199.16;5137078;27;20632;-69
2022/06/06 01:15:59;;;;;;;3.40;2.80;;;;;;;15.28;100.00;98200.91;5137071;27;20229;-69
2022/06/06 01:18:37;;;;;;;3.53;3.00;;;;;;;15.33;100.00;98192.94;5118549;27;20321;-68
2022/06/06 01:21:25;;;;;;;4.00;2.70;;;;;;;15.43;100.00;98193.09;5136901;27;20289;-68
2022/06/06 01:24:16;;;;;;;3.43;3.13;;;;;;;15.49;100.00;98197.50;5136890;27;20191;-68
2022/06/06 01:26:48;;;;;;;5.43;2.87;;;;;;;15.49;100.00;98194.81;5136944;27;20383;-68
2022/06/06 01:29:28;;;;;;;4.30;2.80;;;;;;;15.44;100.00;98186.72;5117576;28;20789;-69
2022/06/06 01:32:03;;;;;;;3.37;2.70;;;;;;;15.44;100.00;98193.94;5136673;27;20197;-68
2022/06/06 01:34:36;;;;;;;4.60;3.00;;;;;;;15.39;100.00;98189.31;5136782;27;20186;-69
2022/06/06 01:37:03;;;;;;;3.93;2.60;;;;;;;15.47;100.00;98180.84;5136695;27;20270;-69
2022/06/06 01:39:32;;;;;;;7.43;3.27;;;;;;;15.41;100.00;98181.84;5136452;27;20232;-68
2022/06/06 01:42:15;;;;;;;3.23;2.93;;;;;;;15.44;100.00;98184.03;5136971;27;20641;-69
2022/06/06 01:44:57;;;;;;;3.23;2.87;;;;;;;15.39;100.00;98172.44;5136823;27;20191;-69
2022/06/06 01:47:46;;;;;;;3.30;3.00;;;;;;;15.39;100.00;98175.94;5117901;27;20562;-68
2022/06/06 01:50:14;;;;;;;4.27;2.90;;;;;;;15.39;100.00;98172.44;5136127;27;20183;-69
2022/06/06 01:52:50;;;;;;;5.90;2.80;;;;;;;15.40;100.00;98174.88;5136075;27;20207;-69
2022/06/06 01:55:17;;;;;;;4.17;2.70;;;;;;;15.41;100.00;98173.81;5136037;27;20725;-68
2022/06/06 01:57:45;;;;;;;4.13;2.73;;;;;;;15.46;100.00;98173.88;5136150;27;20218;-69
2022/06/06 02:00:13;;;;;;;3.00;2.70;;;;;;;15.43;100.00;98174.34;5136146;27;20214;-69
2022/06/06 02:02:43;;;;;;;4.07;2.70;;;;;;;15.39;100.00;98165.22;5135866;27;20661;-68
2022/06/06 02:05:11;;;;;;;2.80;2.60;;;;;;;15.38;100.00;98174.28;5136159;27;20206;-68
2022/06/06 02:07:38;;;;;;;2.87;2.67;;;;;;;15.31;100.00;98168.28;5136198;27;20218;-68
2022/06/06 02:10:05;;;;;;;4.27;3.13;;;;;;;15.28;100.00;98167.97;5135809;27;20289;-68
2022/06/06 02:12:31;;;;;;;2.87;2.67;;;;;;;15.29;100.00;98173.06;5135988;27;20289;-69
2022/06/06 02:14:58;;;;;;;4.47;2.83;;;;;;;15.18;100.00;98173.97;5135886;27;20294;-69
2022/06/06 02:17:24;;;;;;;3.40;2.70;;;;;;;15.24;100.00;98167.63;5135799;27;20289;-69
2022/06/06 02:19:53;;;;;;;3.43;2.63;;;;;;;15.21;100.00;98172.66;5135750;27;20295;-69
2022/06/06 02:22:19;;;;;;;3.00;2.80;;;;;;;15.15;100.00;98171.78;5135767;27;20230;-69
2022/06/06 02:24:46;;;;;;;5.77;2.73;;;;;;;15.12;100.00;98168.78;5135360;27;20767;-69
2022/06/06 02:27:12;;;;;;;3.60;3.27;;;;;;;15.04;100.00;98175.34;5135674;27;20203;-69
2022/06/06 02:29:39;;;;;;;3.83;2.87;;;;;;;14.97;100.00;98172.03;5135553;27;20218;-69
2022/06/06 02:32:08;;;;;;;2.60;2.50;;;;;;;14.97;100.00;98158.63;5135579;27;20210;-69
2022/06/06 02:34:35;;;;;;;3.97;2.90;;;;;;;14.93;100.00;98159.38;5135250;27;20198;-69
2022/06/06 02:37:02;;;;;;;4.07;3.23;;;;;;;14.85;100.00;98157.94;5135512;27;20234;-69
2022/06/06 02:39:28;;;;;;;4.67;3.20;;;;;;;14.77;100.00;98155.66;5117144;27;20313;-69
2022/06/06 02:41:54;;;;;;;3.17;2.97;;;;;;;14.72;100.00;98160.91;5134686;27;20680;-69
2022/06/06 02:44:21;;;;;;;4.83;3.13;;;;;;;14.74;100.00;98168.72;5135240;27;20202;-69
2022/06/06 02:46:47;;;;;;;3.00;2.80;;;;;;;14.61;100.00;98167.13;5135226;27;20207;-69
2022/06/06 02:49:14;;;;;;;4.70;3.30;;;;;;;14.62;100.00;98168.78;5134880;27;20218;-69
2022/06/06 02:51:40;;;;;;;3.90;3.30;;;;;;;14.59;100.00;98163.06;5134856;27;20207;-69
2022/06/06 02:54:07;;;;;;;3.47;2.93;;;;;;;14.56;100.00;98166.25;5134980;27;20293;-69
2022/06/06 02:56:33;;;;;;;3.50;3.20;;;;;;;14.49;100.00;98173.59;5135124;27;20206;-69
2022/06/06 02:59:04;;;;;;;3.57;3.27;;;;;;;14.44;100.00;98184.22;5134843;27;20269;-69
2022/06/06 03:01:31;;;;;;;4.57;3.13;;;;;;;14.41;100.00;98176.66;5134636;27;20183;-69
2022/06/06 03:03:58;;;;;;;3.63;3.33;;;;;;;14.43;100.00;98163.88;5134759;27;20665;-69
2022/06/06 03:06:43;;;;;;;4.60;3.10;;;;;;;14.42;100.00;98179.09;5134894;27;20245;-69
2022/06/06 03:09:15;;;;;;;3.90;3.43;;;;;;;14.46;100.00;98190.94;5134678;27;20223;-69
2022/06/06 03:12:00;;;;;;;3.77;3.30;;;;;;;14.38;100.00;98196.69;5134163;27;20208;-69
2022/06/06 03:14:51;;;;;;;3.37;3.07;;;;;;;14.42;100.00;98197.84;5134262;27;20206;-69
2022/06/06 03:20:47;;;;;;;3.23;3.00;;;;;;;14.36;100.00;98198.78;5134631;27;20291;-69
2022/06/06 03:23:33;;;;;;;3.57;3.27;;;;;;;14.35;100.00;98207.06;5134337;27;20586;-69
2022/06/06 03:26:11;;;;;;;3.67;3.37;;;;;;;14.29;100.00;98205.34;5134657;27;20282;-69
2022/06/06 03:29:20;;;;;;;3.77;3.37;;;;;;;14.25;100.00;98217.56;5134450;27;20218;-69
2022/06/06 03:32:17;;;;;;;3.20;2.90;;;;;;;14.24;100.00;98229.31;5134669;27;20243;-69
2022/06/06 03:35:01;;;;;;;3.90;3.60;;;;;;;14.26;100.00;98238.72;5117166;27;20217;-69
2022/06/06 03:37:50;;;;;;;3.57;3.30;;;;;;;14.34;100.00;98229.50;5134363;27;20273;-69
2022/06/06 03:40:46;;;;;;;3.53;3.17;;;;;;;14.33;100.00;98231.34;5133937;28;20569;-69
2022/06/06 03:43:34;;;;;;;5.00;3.80;;;;;;;14.36;100.00;98230.91;5116081;28;20189;-69
2022/06/06 03:46:17;;;;;;;3.63;3.33;;;;;;;14.41;100.00;98235.50;5134242;28;20281;-69
2022/06/06 03:49:02;;;;;;;4.70;3.43;;;;;;;14.39;100.00;98226.94;5116545;28;20234;-69
2022/06/06 03:51:45;;;;;;;3.57;3.37;;;;;;;14.35;100.00;98225.78;5134254;28;20557;-69
2022/06/06 03:54:49;;;;;;;3.60;3.30;;;;;;;14.35;100.00;98236.47;5136780;27;20206;-70
2022/06/06 03:57:19;;;;;;;4.17;3.40;;;;;;;14.42;100.00;98232.59;5138633;27;20190;-69
2022/06/06 03:59:51;;;;;;;4.73;3.53;;;;;;;14.44;100.00;98222.50;5138518;27;20309;-69
2022/06/06 04:02:21;;;;;;;5.33;3.40;;;;;;;14.41;100.00;98225.63;5138162;27;20193;-69
2022/06/06 04:04:47;;;;;;;4.57;3.97;;;;;;;14.42;100.00;98227.25;5138148;27;20198;-69
2022/06/06 04:07:14;;;;;;;4.50;3.37;;;;;;;14.46;100.00;98227.56;5138289;27;20206;-69
2022/06/06 04:09:40;;;;;;;4.33;3.30;;;;;;;14.41;100.00;98227.50;5137750;27;20309;-69
2022/06/06 04:12:22;;;;;;;4.87;3.20;;;;;;;14.40;100.00;98232.03;5138135;27;20206;-69
2022/06/06 04:15:11;;;;;;;3.87;3.53;;;;;;;14.45;100.00;98232.13;5138114;27;20278;-69
2022/06/06 04:17:53;;;;;;;3.60;3.33;;;;;;;14.48;100.00;98234.31;5121316;27;20222;-69
2022/06/06 04:21:17;;;;;;;4.33;3.57;;;;;;;14.61;100.00;98238.59;5119471;27;20290;-69
2022/06/06 04:24:09;;;;;;;3.90;3.50;;;;;;;14.67;100.00;98241.13;5034552;28;20293;-69
2022/06/06 04:26:56;;;;;;;3.47;3.17;;;;;;;14.74;100.00;98231.06;5018192;28;20273;-69
2022/06/06 04:30:10;;;;;;;3.33;3.13;;;;;;;14.82;100.00;98222.63;5129299;27;20771;-69
2022/06/06 04:32:51;;;;;;;3.67;3.37;;;;;;;14.83;100.00;98224.25;5018449;28;20300;-69
2022/06/06 04:35:31;;;;;;;3.20;2.90;;;;;;;14.92;100.00;98219.34;5135399;27;20745;-69
2022/06/06 04:38:06;;;;;;;4.77;3.60;;;;;;;14.93;100.00;98224.41;5137934;27;20230;-69
2022/06/06 04:41:01;;;;;;;3.97;3.57;;;;;;;14.99;100.00;98212.75;5137692;27;20217;-69
2022/06/06 04:43:47;;;;;;;6.00;3.33;;;;;;;15.09;100.00;98217.47;5120155;27;20274;-69
2022/06/06 04:46:52;;;;;;;3.60;3.30;;;;;;;15.19;100.00;98221.13;5137580;27;20596;-69
2022/06/06 04:49:20;;;;;;;4.43;3.40;;;;;;;15.28;100.00;98225.00;5098275;27;20225;-69
2022/06/06 04:51:47;;;;;;;4.90;3.10;;;;;;;15.39;100.00;98229.50;5137370;27;20203;-69
2022/06/06 04:54:21;;;;;;;3.90;3.23;;;;;;;15.49;100.00;98228.84;5137332;27;20217;-69
2022/06/06 04:56:49;;;;;;;4.70;3.37;;;;;;;15.62;100.00;98234.69;5137059;27;20712;-69
2022/06/06 04:59:17;;;;;;;3.40;3.10;;;;;;;15.77;100.00;98240.25;5119037;27;20317;-69
2022/06/06 05:01:44;;;;;;;4.50;3.30;;;;;;;15.87;100.00;98237.69;5137350;27;20301;-69
2022/06/06 05:04:11;;;;;;;2.90;2.70;;;;;;;15.96;100.00;98235.41;5136838;27;20206;-69
2022/06/06 05:07:03;;;;;;;4.03;3.10;;;;;;;16.20;100.00;98232.19;5137165;27;20254;-69
2022/06/06 05:09:41;;;;;;;4.47;3.17;;;;;;;16.55;100.00;98232.66;5137050;27;20275;-69
2022/06/06 05:12:20;;;;;;;2.93;2.73;;;;;;;16.82;99.66;98241.50;5137147;27;20203;-69
2022/06/06 05:15:01;;;;;;;3.63;2.50;;;;;;;17.07;99.38;98238.25;5137086;27;20190;-69
2022/06/06 05:17:46;;;;;;;4.67;2.70;;;;;;;17.69;94.04;98252.75;5136519;27;20193;-69
2022/06/06 05:20:22;;;;;;;4.97;2.90;;;;;;;17.95;91.24;98251.81;5136899;27;20218;-69
2022/06/06 05:23:03;;;;;;;3.67;2.17;;;;;;;18.08;90.79;98248.66;5136525;27;20716;-69
2022/06/06 05:25:46;;;;;;;3.07;2.57;;;;;;;17.84;93.60;98252.81;5119904;27;20193;-70
2022/06/06 05:28:31;;;;;;;4.67;2.43;;;;;;;17.63;94.13;98249.19;5136765;27;20234;-69
2022/06/06 05:31:10;;;;;;;3.40;2.50;;;;;;;17.48;96.15;98259.88;5136833;27;20269;-69
2022/06/06 05:33:46;;;;;;;4.03;2.77;;;;;;;17.39;97.04;98255.19;5136682;27;20236;-69
2022/06/06 05:36:21;;;;;;;2.63;2.40;;;;;;;17.27;95.05;98258.03;5136474;27;20273;-69
2022/06/06 05:39:18;;;;;;;3.13;2.80;;;;;;;17.26;95.50;98261.81;5136336;27;20313;-69
2022/06/06 05:41:57;;;;;;;3.73;3.07;;;;;;;17.12;95.38;98260.59;5136248;27;20193;-69
2022/06/06 05:44:29;;;;;;;2.57;2.37;;;;;;;17.06;97.37;98261.59;5136401;27;20198;-70
2022/06/06 05:47:07;;;;;;;3.37;2.50;;;;;;;17.11;97.41;98266.22;5136060;27;20740;-69
2022/06/06 05:50:00;;;;;;;3.13;2.70;;;;;;;17.18;98.73;98264.13;5117982;27;20309;-69
2022/06/06 05:52:54;;;;;;;3.07;2.70;;;;;;;17.26;98.31;98264.50;5118253;27;20187;-69
2022/06/06 05:55:41;;;;;;;2.73;2.60;;;;;;;17.54;98.85;98271.44;5136091;27;20651;-69
2022/06/06 05:58:45;;;;;;;3.93;2.70;;;;;;;17.69;94.76;98274.25;5136257;27;20254;-69
2022/06/06 06:01:37;;;;;;;3.63;2.50;;;;;;;17.77;93.69;98271.06;5136186;27;20228;-69
2022/06/06 06:04:35;;;;;;;4.10;2.50;;;;;;;17.92;93.91;98269.28;5117751;27;20190;-69
2022/06/06 06:07:24;;;;;;;3.40;2.80;;;;;;;17.82;92.75;98265.75;5135975;27;20320;-69
2022/06/06 06:10:30;;;;;;;4.10;2.50;;;;;;;17.78;92.99;98268.13;5135812;27;20294;-70
2022/06/06 06:13:23;;;;;;;3.03;2.60;;;;;;;18.00;92.86;98274.16;5125113;27;20293;-69
2022/06/06 06:15:53;;;;;;;3.13;2.77;;;;;;;18.03;91.81;98284.41;5135249;27;20274;-69
2022/06/06 06:18:26;;;;;;;2.63;2.43;;;;;;;18.01;94.04;98286.53;5135730;27;20770;-70
2022/06/06 06:21:13;;;;;;;3.03;2.63;;;;;;;17.96;95.58;98281.13;5135696;27;20213;-69
2022/06/06 06:23:43;;;;;;;3.93;2.70;;;;;;;17.87;92.61;98288.06;5135408;27;20679;-69
2022/06/06 06:26:11;;;;;;;4.80;2.93;;;;;;;17.69;93.18;98285.81;5135736;27;20279;-69
2022/06/06 06:28:38;;;;;;;3.70;3.13;;;;;;;17.65;95.08;98283.91;5135209;27;20233;-69
2022/06/06 06:31:32;;;;;;;3.77;2.87;;;;;;;17.86;92.02;98278.41;5135563;27;20289;-69
2022/06/06 06:34:10;;;;;;;3.33;3.03;;;;;;;17.65;92.80;98283.91;5135453;27;20616;-70
2022/06/06 06:36:50;;;;;;;3.40;3.00;;;;;;;17.66;94.27;98286.34;5135101;27;20225;-69
2022/06/06 06:39:38;;;;;;;4.10;3.00;;;;;;;17.78;94.95;98294.22;5135068;27;20254;-70
2022/06/06 06:42:23;;;;;;;3.97;2.83;;;;;;;17.80;94.56;98298.28;5135275;27;20218;-69
2022/06/06 06:44:55;;;;;;;4.50;2.70;;;;;;;17.89;93.88;98307.47;5134604;27;20546;-69
2022/06/06 06:47:43;;;;;;;3.50;3.20;;;;;;;18.05;92.46;98308.38;5135353;27;20318;-69
2022/06/06 06:50:16;;;;;;;3.03;2.83;;;;;;;18.20;91.50;98316.53;5135228;27;20270;-69
2022/06/06 06:52:59;;;;;;;3.20;2.90;;;;;;;18.23;94.25;98319.50;5135016;27;20209;-69
2022/06/06 06:55:50;;;;;;;3.50;2.80;;;;;;;18.26;93.83;98313.59;5135047;27;20197;-69
2022/06/06 06:58:33;;;;;;;3.17;2.87;;;;;;;18.42;92.60;98318.00;5119789;27;20309;-69
2022/06/06 07:01:05;;;;;;;5.63;2.73;;;;;;;18.45;93.10;98322.88;5134593;27;20677;-69
2022/06/06 07:09:35;;;;;;;3.37;2.70;;;;;;;18.82;89.13;98328.16;5134953;27;20267;-69
2022/06/06 07:12:19;;;;;;;4.20;3.00;;;;;;;18.78;88.82;98324.38;5134575;27;20552;-69
2022/06/06 07:15:04;;;;;;;4.30;2.53;;;;;;;18.86;90.62;98319.25;5134705;27;20274;-70
2022/06/06 07:17:35;;;;;;;3.33;3.03;;;;;;;18.80;88.65;98320.31;5134624;27;20274;-69
2022/06/06 07:20:08;;;;;;;3.77;3.03;;;;;;;18.75;88.44;98314.09;5134564;27;20203;-69
2022/06/06 07:23:01;;;;;;;3.57;3.00;;;;;;;18.61;89.82;98323.75;5134215;27;20206;-69
2022/06/06 07:25:32;;;;;;;3.40;3.10;;;;;;;18.53;90.08;98322.38;5134182;27;20194;-69
2022/06/06 07:27:59;;;;;;;2.80;2.60;;;;;;;18.56;93.74;98318.34;5133284;27;20309;-69
2022/06/06 07:30:30;;;;;;;5.47;2.77;;;;;;;18.73;90.52;98306.28;5133822;27;20261;-69
2022/06/06 07:33:23;;;;;;;3.03;2.80;;;;;;;19.19;83.48;98299.13;5134236;27;20186;-69
2022/06/06 07:36:04;;;;;;;3.00;2.70;;;;;;;19.32;86.37;98296.72;5134196;27;20191;-70
2022/06/06 07:38:55;;;;;;;5.60;2.90;;;;;;;19.20;84.95;98293.47;5134067;27;20227;-69
2022/06/06 07:41:28;;;;;;;6.47;2.90;;;;;;;19.25;87.40;98303.47;5134064;28;20748;-69
2022/06/06 07:44:10;;;;;;;3.87;2.83;;;;;;;19.22;87.64;98293.19;5134104;28;20552;-69
2022/06/06 07:46:57;;;;;;;3.20;2.90;;;;;;;19.58;88.10;98288.66;5134352;28;20298;-69
2022/06/06 07:49:39;;;;;;;4.17;3.23;;;;;;;19.35;86.35;98285.41;5133985;28;20228;-69
2022/06/06 07:52:27;;;;;;;4.90;3.30;;;;;;;19.44;86.99;98278.41;5116125;28;20282;-69
2022/06/06 07:55:10;;;;;;;5.73;3.10;;;;;;;19.58;86.27;98280.56;5134104;28;20210;-69
2022/06/06 07:57:51;;;;;;;3.37;2.70;;;;;;;19.64;85.42;98281.09;5115966;28;20230;-69
2022/06/06 08:00:28;;;;;;;3.00;2.70;;;;;;;19.52;84.92;98277.06;5134029;28;20218;-69
2022/06/06 08:03:40;;;;;;;2.97;2.30;;;;;;;19.72;80.04;98278.94;5134066;28;20243;-70
2022/06/06 08:06:21;;;;;;;4.23;2.70;;;;;;;19.94;78.37;98277.53;5133960;28;20273;-69
2022/06/06 08:09:12;;;;;;;4.27;2.50;;;;;;;20.04;75.94;98282.09;5115836;28;20653;-70
2022/06/06 08:11:44;;;;;;;3.03;2.20;;;;;;;19.99;71.15;98282.91;5134092;28;20273;-69
2022/06/06 08:14:22;;;;;;;3.53;2.50;;;;;;;20.21;72.02;98278.03;5133803;28;20238;-70
2022/06/06 08:17:08;;;;;;;3.33;2.50;;;;;;;20.24;71.37;98268.56;5117051;28;20214;-69
2022/06/06 08:19:49;;;;;;;2.60;2.20;;;;;;;20.31;70.24;98277.19;5134045;28;20586;-69
2022/06/06 08:22:16;;;;;;;3.30;2.20;;;;;;;20.68;68.58;98264.06;5133917;28;20206;-70
2022/06/06 08:24:48;;;;;;;2.97;2.23;;;;;;;20.77;72.19;98265.09;5133881;28;20289;-70
2022/06/06 08:27:17;;;;;;;2.93;2.20;;;;;;;20.80;67.04;98259.16;5133960;28;20191;-70
2022/06/06 08:29:45;;;;;;;2.53;2.10;;;;;;;20.78;65.33;98266.72;5133916;28;20203;-70
2022/06/06 08:32:12;;;;;;;2.33;2.10;;;;;;;20.81;66.17;98258.06;5134146;28;20203;-70
2022/06/06 08:34:39;;;;;;;3.87;2.20;;;;;;;20.62;62.85;98262.50;5133793;28;20297;-70
2022/06/06 08:37:24;;;;;;;2.30;2.10;;;;;;;20.49;64.38;98265.78;5133804;28;20289;-70
2022/06/06 08:40:24;;;;;;;2.10;1.90;;;;;;;20.61;66.17;98263.59;5135206;27;20714;-69
2022/06/06 08:43:09;;;;;;;3.40;2.03;;;;;;;20.71;62.49;98267.00;5138113;27;20290;-70
2022/06/06 08:46:13;;;;;;;3.63;2.00;;;;;;;20.81;63.21;98258.06;5137202;27;20281;-70
2022/06/06 08:48:45;;;;;;;3.93;2.20;;;;;;;21.11;63.57;98260.59;5137222;27;20305;-70
2022/06/06 08:51:24;;;;;;;2.33;2.13;;;;;;;21.28;63.27;98261.00;5119151;27;20265;-70
2022/06/06 08:54:12;;;;;;;2.60;2.30;;;;;;;21.36;61.79;98250.41;5137184;27;20297;-70
2022/06/06 08:56:57;;;;;;;2.70;2.13;;;;;;;21.29;62.71;98249.13;5137740;27;20202;-70
2022/06/06 08:59:42;;;;;;;2.70;2.00;;;;;;;21.38;63.24;98247.41;5137182;27;20234;-70
2022/06/06 09:02:08;;;;;;;3.20;1.93;;;;;;;21.78;59.25;98244.34;5136658;27;20218;-70
2022/06/06 09:05:13;;;;;;;3.00;2.10;;;;;;;21.75;58.76;98244.94;5136616;27;20692;-69
2022/06/06 09:07:46;;;;;;;4.63;1.95;;;;;;;21.97;58.60;98253.38;5115173;27;20222;-69
2022/06/06 09:10:44;;;;;;;4.10;1.80;;;;;;;22.03;57.28;98249.50;5136988;27;20183;-70
2022/06/06 09:13:32;;;;;;;2.80;2.00;;;;;;;21.87;56.02;98246.16;5137766;27;20274;-70
2022/06/06 09:16:18;;;;;;;3.88;1.63;;;;;;;21.38;55.48;98250.13;5136505;27;20656;-70
2022/06/06 09:19:15;;;;;;;3.67;1.87;;;;;;;21.48;56.13;98233.81;5120028;27;20237;-70
2022/06/06 09:22:03;;;;;;;2.60;1.70;;;;;;;21.40;58.43;98234.41;5118508;27;20280;-70
2022/06/06 09:24:29;;;;;;;1.60;1.45;;;;;;;21.35;56.64;98235.22;5136632;27;20299;-70
2022/06/06 09:27:27;;;;;;;1.98;1.50;;;;;;;21.44;55.31;98235.44;5136662;27;20214;-70
2022/06/06 09:30:15;;;;;;;1.92;1.50;;;;;;;21.64;55.15;98238.78;5136766;27;20293;-70
2022/06/06 09:33:15;;;;;;;2.78;1.30;;;;;;;21.71;52.09;98239.25;5137107;27;20273;-69
2022/06/06 09:36:06;;;;;;;2.25;1.60;;;;;;;21.79;55.33;98230.53;5136404;27;20238;-69
2022/06/06 09:39:01;;;;;;;2.70;1.60;;;;;;;21.47;52.31;98227.56;5136228;27;20313;-69
2022/06/06 09:41:38;;;;;;;1.60;1.50;;;;;;;21.66;52.60;98227.69;5136448;27;20210;-69
2022/06/06 09:44:16;;;;;;;1.83;1.57;;;;;;;21.69;54.11;98222.53;5135929;27;20665;-69
2022/06/06 09:47:10;;;;;;;2.10;1.60;;;;;;;21.56;54.27;98230.47;5136360;27;20203;-70
2022/06/06 09:50:02;;;;;;;1.90;1.70;;;;;;;21.81;53.22;98227.53;5136192;27;20310;-70
2022/06/06 09:52:41;;;;;;;2.40;1.57;;;;;;;21.79;52.85;98235.16;5117335;27;20195;-70
2022/06/06 10:01:43;;;;;;;3.88;1.75;;;;;;;22.06;51.25;98228.06;5120133;27;20274;-69
2022/06/06 10:04:28;;;;;;;1.80;1.60;;;;;;;22.14;51.84;98226.63;5135551;27;20183;-69
2022/06/06 10:07:19;;;;;;;2.10;1.58;;;;;;;22.65;52.81;98227.66;5135539;27;20281;-69
2022/06/06 10:10:04;;;;;;;1.67;1.50;;;;;;;22.28;52.32;98222.94;5117757;27;20191;-70
2022/06/06 10:12:46;;;;;;;1.75;1.48;;;;;;;22.19;52.17;98219.25;5136001;27;20199;-69
2022/06/06 10:15:23;;;;;;;1.50;1.40;;;;;;;22.23;49.82;98208.66;5135534;27;20226;-69
2022/06/06 10:18:07;;;;;;;1.80;1.70;;;;;;;22.59;49.81;98209.81;5135192;27;20224;-69
2022/06/06 10:20:58;;;;;;;1.65;1.55;;;;;;;22.95;50.71;98200.91;5135367;27;20244;-69
2022/06/06 10:23:39;;;;;;;6.47;1.58;;;;;;;23.15;48.47;98191.66;5135277;27;20290;-70
2022/06/06 10:26:21;;;;;;;2.67;1.83;;;;;;;22.80;49.09;98194.91;5135279;27;20302;-69
2022/06/06 10:29:02;;;;;;;1.55;1.45;;;;;;;22.23;49.53;98214.06;5135164;27;20309;-70
2022/06/06 10:32:11;;;;;;;1.55;1.45;;;;;;;21.79;51.66;98208.88;5135369;27;20202;-69
2022/06/06 10:34:58;;;;;;;2.45;1.52;;;;;;;21.84;53.52;98203.41;5116863;27;20713;-69
2022/06/06 10:37:49;;;;;;;1.92;1.73;;;;;;;21.77;54.24;98202.16;5135159;27;20198;-69
2022/06/06 10:40:41;;;;;;;2.15;1.63;;;;;;;21.82;54.23;98211.03;5134752;27;20619;-69
2022/06/06 10:43:14;;;;;;;3.17;1.77;;;;;;;22.01;52.41;98211.06;5119461;27;20316;-69
2022/06/06 10:45:58;;;;;;;2.08;1.75;;;;;;;22.17;53.26;98199.78;5134634;27;20625;-69
2022/06/06 10:48:51;;;;;;;2.13;1.88;;;;;;;22.08;52.37;98209.66;5100469;27;20661;-70
2022/06/06 10:51:40;;;;;;;3.35;1.85;;;;;;;22.02;54.14;98194.53;5134616;27;20289;-70
2022/06/06 10:54:28;;;;;;;3.50;1.92;;;;;;;22.00;53.85;98191.34;5134565;27;20270;-69
2022/06/06 10:57:22;;;;;;;3.15;1.90;;;;;;;21.88;51.08;98190.91;5134388;27;20218;-69
2022/06/06 11:00:03;;;;;;;2.80;1.80;;;;;;;21.93;50.14;98193.56;5134743;27;20293;-70
2022/06/06 11:02:54;;;;;;;3.22;1.70;;;;;;;22.37;49.08;98180.56;5133986;27;20684;-69
2022/06/06 11:05:44;;;;;;;1.90;1.80;;;;;;;22.69;46.92;98182.56;5134437;27;20214;-69
2022/06/06 11:08:40;;;;;;;1.65;1.52;;;;;;;22.92;46.68;98170.88;5134163;27;20658;-70
2022/06/06 11:11:07;;;;;;;2.60;1.40;;;;;;;23.28;46.44;98169.19;5116518;27;20190;-69
2022/06/06 11:13:41;;;;;;;1.65;1.48;;;;;;;23.49;47.32;98167.75;5134562;27;20298;-70
2022/06/06 11:16:17;;;;;;;1.50;1.40;;;;;;;23.36;49.74;98168.50;5116190;27;20610;-69
2022/06/06 11:19:08;;;;;;;1.52;1.42;;;;;;;23.66;47.11;98163.31;5133992;27;20228;-70
2022/06/06 11:21:51;;;;;;;2.10;1.40;;;;;;;23.69;46.74;98162.75;5134254;27;20307;-69
2022/06/06 11:24:35;;;;;;;1.65;1.40;;;;;;;23.07;45.52;98165.97;5116394;27;20274;-69
2022/06/06 11:27:19;;;;;;;1.73;1.50;;;;;;;22.91;47.58;98161.91;5100586;27;20186;-69
2022/06/06 11:30:07;;;;;;;2.42;1.67;;;;;;;23.02;48.44;98159.84;5116012;27;20277;-69
2022/06/06 11:33:00;;;;;;;3.25;1.83;;;;;;;23.07;49.14;98160.56;5134392;27;20186;-69
2022/06/06 11:35:40;;;;;;;6.63;5.90;;;;;;;23.37;49.58;98161.97;5115897;27;20190;-69
2022/06/06 11:38:31;;;;;;;4.00;1.80;;;;;;;23.26;45.20;98157.84;5116183;27;20317;-69
2022/06/06 11:41:39;;;;;;;2.85;2.65;;;;;;;23.30;46.10;98165.09;5134540;27;20207;-70
2022/06/06 11:44:15;;;;;;;1.60;1.50;;;;;;;23.03;44.29;98153.31;5118503;28;20195;-69
2022/06/06 11:46:53;;;;;;;2.20;1.60;;;;;;;22.85;45.16;98163.09;5133906;28;20213;-69
2022/06/06 11:49:42;;;;;;;2.85;1.48;;;;;;;22.87;45.90;98147.34;5134162;28;20313;-70
2022/06/06 11:52:32;;;;;;;2.17;1.98;;;;;;;22.94;46.52;98149.69;5116121;28;20187;-70
2022/06/06 11:55:25;;;;;;;2.50;1.75;;;;;;;22.81;46.54;98151.25;5134021;28;20237;-70
2022/06/06 11:58:30;;;;;;;2.72;1.65;;;;;;;22.52;47.34;98160.63;5115944;28;20233;-69
2022/06/06 12:01:24;;;;;;;1.73;1.30;;;;;;;22.25;48.17;98155.78;5115164;28;20216;-70
2022/06/06 12:04:20;;;;;;;2.65;1.60;;;;;;;22.11;48.66;98156.81;5134098;28;20622;-69
2022/06/06 12:06:58;;;;;;;3.13;1.42;;;;;;;22.04;47.63;98156.34;5115718;28;20274;-70
2022/06/06 12:09:43;;;;;;;2.53;1.50;;;;;;;22.07;47.63;98158.50;5133633;28;20229;-69
2022/06/06 12:12:37;;;;;;;2.42;1.73;;;;;;;22.50;46.52;98144.66;5134079;28;20179;-69
2022/06/06 12:15:16;;;;;;;1.90;1.70;;;;;;;22.51;46.45;98145.44;5118069;27;20726;-68
2022/06/06 12:17:53;;;;;;;1.90;1.80;;;;;;;22.64;47.21;98144.72;5138059;27;20225;-69
2022/06/06 12:20:41;;;;;;;4.72;2.85;;;;;;;22.53;50.05;98140.56;5137690;27;20281;-69
2022/06/06 12:23:22;;;;;;;1.55;1.45;;;;;;;22.37;48.65;98142.63;5137268;27;20206;-69
2022/06/06 12:26:20;;;;;;;2.25;2.05;;;;;;;22.21;47.51;98140.44;5119619;27;20239;-69
2022/06/06 12:29:09;;;;;;;2.38;1.35;;;;;;;22.03;47.94;98144.69;5138077;27;20218;-69
2022/06/06 12:31:55;;;;;;;1.95;1.40;;;;;;;22.10;47.61;98131.63;5137403;27;20195;-69
2022/06/06 12:34:31;;;;;;;1.85;1.52;;;;;;;22.32;49.20;98131.06;5138143;27;20197;-69
2022/06/06 12:37:11;;;;;;;1.73;1.63;;;;;;;22.31;48.36;98132.97;5119385;27;20193;-70
2022/06/06 12:39:51;;;;;;;3.90;1.48;;;;;;;22.51;48.79;98129.19;5120241;27;20223;-69
2022/06/06 12:42:43;;;;;;;2.35;1.42;;;;;;;22.66;46.16;98124.34;5137499;27;20210;-70
2022/06/06 12:45:34;;;;;;;3.03;1.50;;;;;;;22.94;46.90;98119.84;5137728;27;20277;-69
2022/06/06 12:48:28;;;;;;;1.40;1.30;;;;;;;23.38;45.14;98122.91;5137372;27;20314;-69